Nrc Quest — WDF7619 — position and weather

sailwx.info

Track history (hours):
 
Tides and Currents Weather Stations Pressure Air Temp Water Temp Dewpoint Dewpoint Depression Visibility Wind Speed Wind Dir Waves Ship Positions

Nrc Quest

Owner: National Response Corporation, The Woodlands, TX. More information available from US FCC via Universal Licensing System and Coast Guard Vessel Documentation Center.

Last reported at 2017-Nov-17 22:41 UTC. Time now 2017-Nov-18 11:41 UTC.
Position N 33°42' W 118°16'.

Length 46 m; draft 3.5 m.

Type: Ship. MMSI: 367486370.

Date/timePositionNaut miles runAvg speedWind from/ knotsBaromVisibWave heightAir tempDewpointWater temp
2017-Nov-17 22:41N 33°42' W 118°16'5 5.4
2017-Nov-17 21:45N 33°41' W 118°23'0 0.3
2017-Nov-17 21:29N 33°41' W 118°23'0 0.1
2017-Nov-17 20:52N 33°41' W 118°23'0 0.2
2017-Nov-17 20:25N 33°41' W 118°23'1 0.7
2017-Nov-17 19:37N 33°41' W 118°22'0 0.5
2017-Nov-17 19:24N 33°41' W 118°22'1 1.3
2017-Nov-17 19:00N 33°40' W 118°23'1 0.7
2017-Nov-17 18:17N 33°41' W 118°23'0 1.4
2017-Nov-17 18:00N 33°41' W 118°23'1 0.7
2017-Nov-17 16:02N 33°41' W 118°21'310.0
2017-Nov-17 15:43N 33°41' W 118°17'2 0.1
2017-Nov-16 20:48N 33°43' W 118°16'0 0.0
2017-Nov-16 20:12N 33°43' W 118°16'0 0.0
2017-Nov-16 20:00N 33°43' W 118°16'  
2017-Nov-14 02:16N 33°43' W 118°16'0 0.0
2017-Nov-14 01:58N 33°43' W 118°16'0 0.0
2017-Nov-14 01:10N 33°43' W 118°16'0 0.0
2017-Nov-14 00:58N 33°43' W 118°16'0 0.0
2017-Nov-14 00:28N 33°43' W 118°16'0 0.0
2017-Nov-13 23:52N 33°43' W 118°16'0 0.0
2017-Nov-13 23:28N 33°43' W 118°16'0 0.0
2017-Nov-13 22:58N 33°43' W 118°16'0 0.0
2017-Nov-13 22:28N 33°43' W 118°16'0 0.0
2017-Nov-13 21:58N 33°43' W 118°16'0 0.0
2017-Nov-12 21:52N 33°43' W 118°16'0 0.0
2017-Nov-12 21:22N 33°43' W 118°16'  
2017-Nov-08 10:40N 33°43' W 118°16'0 0.0
2017-Nov-08 07:40N 33°43' W 118°16'0 0.0
2017-Nov-08 07:28N 33°43' W 118°16'0 0.0
2017-Nov-08 06:52N 33°43' W 118°16'0 0.0
2017-Nov-08 06:28N 33°43' W 118°16'0 0.0
2017-Nov-08 05:58N 33°43' W 118°16'0 0.0
2017-Nov-08 00:52N 33°43' W 118°16'0 0.0
2017-Nov-08 00:28N 33°43' W 118°16'0 0.0
2017-Nov-07 23:58N 33°43' W 118°16'0 0.0
2017-Nov-07 23:28N 33°43' W 118°16'  
Track history (hours):
 
Tides and Currents Weather Stations Pressure Air Temp Water Temp Dewpoint Dewpoint Depression Visibility Wind Speed Wind Dir Waves Ship Positions

Nrc Quest

Owner: National Response Corporation, The Woodlands, TX. More information available from US FCC via Universal Licensing System and Coast Guard Vessel Documentation Center.

Last reported at 2017-Nov-17 22:41 UTC. Time now 2017-Nov-18 11:41 UTC.
Position N 33°42' W 118°16'.

Length 46 m; draft 3.5 m.

Type: Ship. MMSI: 367486370.

Date/timePositionNaut miles runAvg speedWind from/ knotsBaromVisibWave heightAir tempDewpointWater temp
2017-Nov-17 22:41N 33°42' W 118°16'5 5.4
2017-Nov-17 21:45N 33°41' W 118°23'0 0.3
2017-Nov-17 21:29N 33°41' W 118°23'0 0.1
2017-Nov-17 20:52N 33°41' W 118°23'0 0.2
2017-Nov-17 20:25N 33°41' W 118°23'1 0.7
2017-Nov-17 19:37N 33°41' W 118°22'0 0.5
2017-Nov-17 19:24N 33°41' W 118°22'1 1.3
2017-Nov-17 19:00N 33°40' W 118°23'1 0.7
2017-Nov-17 18:17N 33°41' W 118°23'0 1.4
2017-Nov-17 18:00N 33°41' W 118°23'1 0.7
2017-Nov-17 16:02N 33°41' W 118°21'310.0
2017-Nov-17 15:43N 33°41' W 118°17'2 0.1
2017-Nov-16 20:48N 33°43' W 118°16'0 0.0
2017-Nov-16 20:12N 33°43' W 118°16'0 0.0
2017-Nov-16 20:00N 33°43' W 118°16'  
2017-Nov-14 02:16N 33°43' W 118°16'0 0.0
2017-Nov-14 01:58N 33°43' W 118°16'0 0.0
2017-Nov-14 01:10N 33°43' W 118°16'0 0.0
2017-Nov-14 00:58N 33°43' W 118°16'0 0.0
2017-Nov-14 00:28N 33°43' W 118°16'0 0.0
2017-Nov-13 23:52N 33°43' W 118°16'0 0.0
2017-Nov-13 23:28N 33°43' W 118°16'0 0.0
2017-Nov-13 22:58N 33°43' W 118°16'0 0.0
2017-Nov-13 22:28N 33°43' W 118°16'0 0.0
2017-Nov-13 21:58N 33°43' W 118°16'0 0.0
2017-Nov-12 21:52N 33°43' W 118°16'0 0.0
2017-Nov-12 21:22N 33°43' W 118°16'  
2017-Nov-08 10:40N 33°43' W 118°16'0 0.0
2017-Nov-08 07:40N 33°43' W 118°16'0 0.0
2017-Nov-08 07:28N 33°43' W 118°16'0 0.0
2017-Nov-08 06:52N 33°43' W 118°16'0 0.0
2017-Nov-08 06:28N 33°43' W 118°16'0 0.0
2017-Nov-08 05:58N 33°43' W 118°16'0 0.0
2017-Nov-08 00:52N 33°43' W 118°16'0 0.0
2017-Nov-08 00:28N 33°43' W 118°16'0 0.0
2017-Nov-07 23:58N 33°43' W 118°16'0 0.0
2017-Nov-07 23:28N 33°43' W 118°16'  

Dump ship's entire track history